createdAt,value
2018-05-16T10:46:27.770Z,26.50
2018-05-16T10:48:55.238Z,26.60
2018-05-16T10:51:22.685Z,26.60
2018-05-16T10:53:50.137Z,26.90
2018-05-16T10:56:17.583Z,26.50
2018-05-16T10:58:45.035Z,25.80
2018-05-16T11:01:12.696Z,25.40
2018-05-16T11:03:40.077Z,24.80
2018-05-16T11:06:07.613Z,24.40
2018-05-16T11:08:35.071Z,24.20
2018-05-16T11:11:02.528Z,24.10
2018-05-16T11:13:29.997Z,24.30
2018-05-16T11:15:57.566Z,24.20
2018-05-16T11:18:25.098Z,24.30
2018-05-16T11:20:52.656Z,24.70
2018-05-16T11:23:20.246Z,24.90
2018-05-16T11:25:48.467Z,25.90
2018-05-16T11:28:16.066Z,25.80
2018-05-16T11:30:43.533Z,25.90
2018-05-16T11:33:11.758Z,25.90
2018-05-16T11:35:39.214Z,25.90
2018-05-16T11:38:06.790Z,24.90
2018-05-16T11:40:35.387Z,25.30
2018-05-16T11:43:03.846Z,25.80
2018-05-16T11:45:31.281Z,25.80
2018-05-16T11:47:58.737Z,26.00
2018-05-16T11:50:26.206Z,25.90
2018-05-16T11:52:53.661Z,25.80
2018-05-16T11:55:21.106Z,25.60
2018-05-16T11:57:48.583Z,25.60
2018-05-16T12:00:16.035Z,25.50
2018-05-16T12:02:43.603Z,25.60
2018-05-16T12:05:11.818Z,25.80
2018-05-16T12:07:39.321Z,25.70
2018-05-16T12:10:06.787Z,25.40
2018-05-16T12:12:34.262Z,25.60
2018-05-16T12:15:02.515Z,25.80
2018-05-16T12:17:29.951Z,25.80
2018-05-16T12:19:57.440Z,25.90
2018-05-16T12:22:24.986Z,26.30
2018-05-16T12:24:52.438Z,25.90
2018-05-16T12:27:19.914Z,25.90
2018-05-16T12:29:47.468Z,26.50
2018-05-16T12:32:15.016Z,26.20
2018-05-16T12:34:42.574Z,25.80
2018-05-16T12:37:10.138Z,25.50
2018-05-16T12:39:37.685Z,25.40
2018-05-16T12:42:05.229Z,25.20
2018-05-16T12:44:32.708Z,24.90
2018-05-16T12:47:00.197Z,24.90
2018-05-16T12:49:27.672Z,24.80
2018-05-16T12:51:55.110Z,24.60
2018-05-16T12:54:22.644Z,24.40
2018-05-16T12:56:50.089Z,24.60
2018-05-16T12:59:17.554Z,24.60
2018-05-16T13:01:45.764Z,24.90
2018-05-16T13:04:13.226Z,24.90
2018-05-16T13:06:40.719Z,25.30
2018-05-16T13:09:08.179Z,25.80
2018-05-16T13:11:35.730Z,25.40
2018-05-16T13:14:03.274Z,25.40
2018-05-16T13:16:30.848Z,25.50
2018-05-16T13:18:58.331Z,25.60
2018-05-16T13:21:26.591Z,25.30
2018-05-16T13:23:53.994Z,25.30
2018-05-16T13:26:21.465Z,25.20
2018-05-16T13:28:48.933Z,25.20
2018-05-16T13:31:16.493Z,24.90
2018-05-16T13:33:43.951Z,24.80
2018-05-16T13:36:12.493Z,24.60
2018-05-16T13:38:39.886Z,24.60
2018-05-16T13:41:07.363Z,24.90
2018-05-16T13:43:34.839Z,25.20
2018-05-16T13:46:03.046Z,25.70
2018-05-16T13:48:30.517Z,25.70
2018-05-16T13:50:57.962Z,25.90
2018-05-16T13:53:26.543Z,25.80
2018-05-16T13:55:53.931Z,25.70
2018-05-16T13:58:21.535Z,25.70
2018-05-16T14:00:49.002Z,26.10
2018-05-16T14:03:16.485Z,25.80
2018-05-16T14:05:43.965Z,25.90
2018-05-16T14:08:12.195Z,26.00
2018-05-16T14:10:39.673Z,26.00
2018-05-16T14:13:08.046Z,26.40
2018-05-16T14:15:35.522Z,25.90
2018-05-16T14:18:03.078Z,25.50
2018-05-16T14:20:30.526Z,25.20
2018-05-16T14:22:58.079Z,25.10
2018-05-16T14:25:25.535Z,25.50
2018-05-16T14:27:52.995Z,25.90
2018-05-16T14:30:20.659Z,26.10
2018-05-16T14:32:48.915Z,26.30
2018-05-16T14:35:16.491Z,26.30
2018-05-16T14:37:43.945Z,26.50
2018-05-16T14:40:11.430Z,26.60
2018-05-16T14:42:39.772Z,26.20
2018-05-16T14:45:07.192Z,26.20
2018-05-16T14:47:34.679Z,26.30
2018-05-16T14:50:02.262Z,26.60
2018-05-16T14:52:29.803Z,26.60
2018-05-16T14:54:57.360Z,26.90
2018-05-16T14:57:24.839Z,27.10
2018-05-16T14:59:53.090Z,27.00
2018-05-16T15:02:20.564Z,27.00
2018-05-16T15:04:48.797Z,26.70
2018-05-16T15:07:16.281Z,26.70
2018-05-16T15:09:43.745Z,26.60
2018-05-16T15:12:11.973Z,26.30
2018-05-16T15:14:39.465Z,26.30
2018-05-16T15:17:07.031Z,25.60
2018-05-16T15:19:34.507Z,25.50
2018-05-16T15:22:02.721Z,25.80
2018-05-16T15:24:30.199Z,25.80
2018-05-16T15:26:57.642Z,25.60
2018-05-16T15:29:25.234Z,25.70
2018-05-16T15:31:52.711Z,25.70
2018-05-16T15:34:20.957Z,25.70
2018-05-16T15:36:48.491Z,25.70
2018-05-16T15:39:16.003Z,25.50
2018-05-16T15:41:43.481Z,25.30
2018-05-16T15:44:10.999Z,25.20
2018-05-16T15:46:39.316Z,25.10
2018-05-16T15:49:06.734Z,25.10
2018-05-16T15:51:34.974Z,24.90
2018-05-16T15:54:02.427Z,24.90
2018-05-16T15:56:29.969Z,24.90
2018-05-16T15:58:57.432Z,24.90
2018-05-16T16:01:25.019Z,25.00
2018-05-16T16:03:52.477Z,24.90
2018-05-16T16:06:19.944Z,25.00
2018-05-16T16:08:48.181Z,24.70
2018-05-16T16:11:15.737Z,24.70
2018-05-16T16:13:43.297Z,24.30
2018-05-16T16:16:10.766Z,24.00
2018-05-16T16:18:38.314Z,23.90
2018-05-16T16:21:05.874Z,23.70
2018-05-16T16:23:33.431Z,23.30
2018-05-16T16:26:00.997Z,23.20
2018-05-16T16:28:28.452Z,23.20
2018-05-16T16:30:56.027Z,22.90
2018-05-16T16:33:23.482Z,22.60
2018-05-16T16:35:51.721Z,22.00
2018-05-16T16:38:19.293Z,22.00
2018-05-16T16:40:46.773Z,22.00
2018-05-16T16:43:15.006Z,21.50
2018-05-16T16:45:42.568Z,21.40
2018-05-16T16:48:10.130Z,21.50
2018-05-16T16:50:37.599Z,21.50
2018-05-16T16:53:05.157Z,21.50
2018-05-16T16:55:32.611Z,21.50
2018-05-16T16:58:00.291Z,21.50
2018-05-16T17:00:27.745Z,21.20
2018-05-16T17:02:56.094Z,20.90
2018-05-16T17:05:23.555Z,20.80
2018-05-16T17:07:51.010Z,20.70
2018-05-16T17:10:19.249Z,20.50
2018-05-16T17:12:46.769Z,20.50
2018-05-16T17:15:15.018Z,20.50
2018-05-16T17:17:42.577Z,20.40
2018-05-16T17:20:10.032Z,20.30
2018-05-16T17:22:37.481Z,20.30
2018-05-16T17:25:04.948Z,20.30
2018-05-16T17:27:32.424Z,20.20
2018-05-16T17:30:00.659Z,19.80
2018-05-16T17:32:28.218Z,19.80
2018-05-16T17:34:55.708Z,19.60
2018-05-16T17:37:23.231Z,19.50
2018-05-16T17:39:50.690Z,19.40
2018-05-16T17:42:18.146Z,19.40
2018-05-16T17:44:45.689Z,19.40
2018-05-16T17:47:13.159Z,19.40
2018-05-16T17:49:45.413Z,19.40
2018-05-16T17:52:14.944Z,19.50
2018-05-16T17:54:43.197Z,19.40
2018-05-16T17:57:10.668Z,19.40
2018-05-16T17:59:38.128Z,19.30
2018-05-16T18:02:05.563Z,19.30
2018-05-16T18:04:33.098Z,19.10
2018-05-16T18:07:00.681Z,19.00
2018-05-16T18:09:28.162Z,18.90
2018-05-16T18:11:56.577Z,18.70
2018-05-16T18:17:42.397Z,18.30
2018-05-16T18:20:09.858Z,18.20
2018-05-16T18:22:37.333Z,18.10
2018-05-16T18:25:04.802Z,18.10
2018-05-16T18:27:33.050Z,18.00
2018-05-16T18:30:00.509Z,18.00
2018-05-16T18:32:28.069Z,17.90
2018-05-16T18:34:55.534Z,17.70
2018-05-16T18:37:23.090Z,17.60
2018-05-16T18:39:50.687Z,17.50
2018-05-16T18:42:18.143Z,17.40
2018-05-16T18:44:46.838Z,17.30
2018-05-16T18:47:15.447Z,17.20
2018-05-16T18:49:42.913Z,17.20
2018-05-16T18:52:10.480Z,17.10
2018-05-16T18:54:37.952Z,17.00
2018-05-16T18:57:05.410Z,17.00
2018-05-16T18:59:32.869Z,16.90
2018-05-16T19:02:00.454Z,16.80
2018-05-16T19:04:28.676Z,16.60
2018-05-16T19:06:56.154Z,16.60
2018-05-16T19:09:24.641Z,16.60
2018-05-16T19:11:52.083Z,16.50
2018-05-16T19:14:19.575Z,16.40
2018-05-16T19:16:47.777Z,16.20
2018-05-16T19:19:15.249Z,16.20
2018-05-16T19:21:42.824Z,16.10
2018-05-16T19:24:10.294Z,16.10
2018-05-16T19:26:37.852Z,16.00
2018-05-16T19:29:05.314Z,16.00
2018-05-16T19:31:33.570Z,15.80
2018-05-16T19:34:01.050Z,15.80
2018-05-16T19:36:28.510Z,15.80
2018-05-16T19:38:56.757Z,15.70
2018-05-16T19:41:24.240Z,15.70
2018-05-16T19:43:52.448Z,15.60
2018-05-16T19:46:21.947Z,15.50
2018-05-16T19:48:49.333Z,15.50
